ADDS METAR Data INFO
IDs: Format: Raw Decoded Include TAF

Data at: 2039 UTC 20 Jul 2018

KGIC 202035Z AUTO 35004KT 10SM 25/02 A3006 RMK AO1
KGIC 202015Z AUTO 02008KT 10SM 25/02 A3006 RMK AO1
KGIC 201955Z AUTO 04006KT 10SM CLR 25/02 A3006 RMK AO1
KGIC 201935Z AUTO 00000KT 10SM CLR 24/02 A3006 RMK AO1
KGIC 201915Z AUTO 05004KT 10SM CLR 24/02 A3007 RMK AO1
KGIC 201855Z AUTO 34005KT 10SM CLR 23/02 A3007 RMK AO1
KGIC 201835Z AUTO 00000KT 10SM CLR 23/02 A3007 RMK AO1
KGIC 201815Z AUTO 01006KT 10SM CLR 23/03 A3007 RMK AO1
KGIC 201755Z AUTO 07004KT 10SM CLR 22/03 A3007 RMK AO1
KGIC 201735Z AUTO 08007KT 10SM CLR 21/04 A3007 RMK AO1
KGIC 201715Z AUTO 06007KT 10SM CLR 21/04 A3007 RMK AO1
KGIC 201655Z AUTO 07004KT 10SM CLR 20/03 A3008 RMK AO1
KGIC 201635Z AUTO 06003KT 10SM CLR 20/03 A3008 RMK AO1
KGIC 201615Z AUTO 11006KT 10SM CLR 19/05 A3008 RMK AO1
KGIC 201555Z AUTO 07004KT 10SM CLR 19/06 A3008 RMK AO1
KGIC 201535Z AUTO 06004KT 10SM CLR 18/07 A3008 RMK AO1
KGIC 201515Z AUTO 36003KT 10SM CLR 17/05 A3008 RMK AO1
KGIC 201455Z AUTO 00000KT 10SM CLR 17/04 A3008 RMK AO1
KGIC 201435Z AUTO 00000KT 10SM CLR 16/04 A3007 RMK AO1
KGIC 201415Z AUTO 03003KT 10SM CLR 15/04 A3007 RMK AO1
KGIC 201355Z AUTO 00000KT 10SM CLR 15/03 A3006 RMK AO1
KGIC 201335Z AUTO 00000KT 10SM CLR 13/04 A3005 RMK AO1
KGIC 201315Z AUTO 00000KT 10SM CLR 12/02 A3005 RMK AO1
KGIC 201255Z AUTO 00000KT 10SM CLR 12/02 A3004 RMK AO1
KGIC 201235Z AUTO 00000KT 10SM CLR 10/03 A3004 RMK AO1
KGIC 201215Z AUTO 24003KT 10SM CLR 10/03 A3004 RMK AO1
KGIC 201155Z AUTO 23004KT 10SM CLR 10/03 A3003 RMK AO1
KGIC 201135Z AUTO 00000KT 10SM CLR 10/03 A3002 RMK AO1
KGIC 201115Z AUTO 00000KT 10SM CLR 11/04 A3002 RMK AO1
KGIC 201055Z AUTO 00000KT 10SM CLR 11/03 A3002 RMK AO1
KGIC 201035Z AUTO 00000KT 10SM CLR 11/05 A3002 RMK AO1
KGIC 201015Z AUTO 00000KT 10SM CLR 11/04 A3002 RMK AO1
KGIC 200955Z AUTO 00000KT 10SM CLR 11/05 A3001 RMK AO1
KGIC 200935Z AUTO 00000KT 10SM CLR 13/05 A3000 RMK AO1
KGIC 200915Z AUTO 00000KT 10SM CLR 13/05 A3001 RMK AO1
KGIC 200855Z AUTO 00000KT 10SM CLR 13/05 A3001 RMK AO1
KGIC 200835Z AUTO 17003KT 10SM CLR 13/05 A3001 RMK AO1
KGIC 200815Z AUTO 00000KT 10SM CLR 13/05 A3001 RMK AO1
KGIC 200755Z AUTO 00000KT 10SM CLR 13/05 A3002 RMK AO1
KGIC 200735Z AUTO 16003KT 10SM CLR 13/06 A3002 RMK AO1
KGIC 200715Z AUTO 00000KT 10SM CLR 13/06 A3002 RMK AO1
KGIC 200655Z AUTO 00000KT 10SM CLR 14/06 A3002 RMK AO1
KGIC 200635Z AUTO 00000KT 10SM 14/06 A3002 RMK AO1
KGIC 200615Z AUTO 00000KT 10SM 15/06 A3002 RMK AO1
KGIC 200600Z AUTO 00000KT 10SM 15/06 A3002 RMK AO1
KGIC 200535Z AUTO 00000KT 10SM 17/07 A3002 RMK AO1
KGIC 200515Z AUTO 14004KT 10SM 17/07 A3002 RMK AO1
KGIC 200455Z AUTO 13005KT 10SM 18/07 A3002 RMK AO1
KGIC 200435Z AUTO 00000KT 10SM 18/08 A3002 RMK AO1
KGIC 200415Z AUTO 00000KT 10SM 21/07 A3002 RMK AO1
KGIC 200355Z AUTO 13003KT 10SM 20/08 A3002 RMK AO1
KGIC 200335Z AUTO 34005KT 10SM 22/08 A3001 RMK AO1
KGIC 200315Z AUTO 34006KT 10SM 23/08 A3001 RMK AO1
KGIC 200255Z AUTO 32006KT 10SM 24/08 A3001 RMK AO1
KGIC 200235Z AUTO 34007KT 10SM 26/07 A3000 RMK AO1
KGIC 200215Z AUTO 01007KT 10SM 27/08 A2999 RMK AO1
KGIC 200155Z AUTO 01009KT 10SM 27/08 A2999 RMK AO1
KGIC 200135Z AUTO 01010KT 10SM 28/08 A2999 RMK AO1
KGIC 200115Z AUTO 01011KT 10SM 28/08 A2999 RMK AO1
KGIC 200055Z AUTO 01012G16KT 10SM 29/08 A2999 RMK AO1
KGIC 200035Z AUTO 01012G18KT 10SM 30/08 A2999 RMK AO1
KGIC 200015Z AUTO 34009G14KT 310V010 10SM 30/06 A2998 RMK AO1
KGIC 192355Z AUTO 34007KT 10SM 31/06 A2999 RMK AO1
KGIC 192335Z AUTO 01011G14KT 10SM 31/04 A2999 RMK AO1
KGIC 192315Z AUTO 28004KT 10SM 31/02 A3000 RMK AO1
KGIC 192255Z AUTO 29006KT 10SM 31/02 A3001 RMK AO1
KGIC 192235Z AUTO 27009G17KT 10SM 31/03 A3001 RMK AO1
KGIC 192215Z AUTO 25008KT 240V320 10SM 31/01 A3002 RMK AO1
KGIC 192155Z AUTO 29011G15KT 280V340 10SM 31/02 A3002 RMK AO1
KGIC 192135Z AUTO 00000KT 10SM 30/03 A3002 RMK AO1
KGIC 192115Z AUTO 03004KT 10SM 30/04 A3003 RMK AO1
KGIC 192055Z AUTO 33005KT 10SM 30/04 A3004 RMK AO1
KGIC 192035Z AUTO 02005G08KT 10SM 29/05 A3004 RMK AO1
KGIC 192015Z AUTO 31007KT 10SM 29/06 A3006 RMK AO1
KGIC 191955Z AUTO 00000KT 10SM 28/06 A3006 RMK AO1
KGIC 191935Z AUTO 24003KT 10SM 27/06 A3006 RMK AO1
KGIC 191915Z AUTO 04004KT 10SM 27/06 A3007 RMK AO1
KGIC 191855Z AUTO 02003KT 10SM CLR 26/07 A3008 RMK AO1
KGIC 191835Z AUTO 01003KT 10SM CLR 26/07 A3008 RMK AO1
KGIC 191815Z AUTO 00000KT 10SM CLR 25/06 A3009 RMK AO1
KGIC 191800Z AUTO 36004KT 10SM CLR 25/06 A3009 RMK AO1
KGIC 191735Z AUTO 04003KT 10SM CLR 24/06 A3009 RMK AO1
KGIC 191715Z AUTO 02004KT 10SM CLR 24/07 A3010 RMK AO1
KGIC 191655Z AUTO 00000KT 10SM CLR 23/06 A3011 RMK AO1
KGIC 191635Z AUTO 00000KT 10SM CLR 22/06 A3011 RMK AO1
KGIC 191615Z AUTO 04003KT 10SM CLR 22/06 A3011 RMK AO1
KGIC 191555Z AUTO 00000KT 10SM CLR 21/06 A3010 RMK AO1
KGIC 191535Z AUTO 00000KT 10SM CLR 20/05 A3011 RMK AO1
KGIC 191515Z AUTO 00000KT 10SM CLR 20/06 A3011 RMK AO1
KGIC 191455Z AUTO 00000KT 10SM CLR 18/06 A3011 RMK AO1
KGIC 191435Z AUTO 00000KT 10SM CLR 17/06 A3011 RMK AO1
KGIC 191415Z AUTO 00000KT 10SM CLR 17/06 A3011 RMK AO1
KGIC 191355Z AUTO 00000KT 10SM CLR 16/06 A3010 RMK AO1
KGIC 191335Z AUTO 00000KT 10SM CLR 14/07 A3010 RMK AO1
KGIC 191315Z AUTO 00000KT 10SM CLR 12/05 A3010 RMK AO1
KGIC 191255Z AUTO 00000KT 10SM CLR 12/05 A3009 RMK AO1
KGIC 191235Z AUTO 21003KT 10SM CLR 12/05 A3009 RMK AO1
KGIC 191215Z AUTO 00000KT 10SM CLR 11/05 A3009 RMK AO1
KGIC 191155Z AUTO 21003KT 10SM CLR 11/05 A3009 RMK AO1
KGIC 191135Z AUTO 00000KT 10SM CLR 11/05 A3008 RMK AO1
KGIC 191115Z AUTO 00000KT 10SM CLR 12/05 A3008 RMK AO1
KGIC 191055Z AUTO 00000KT 10SM CLR 12/05 A3008 RMK AO1
KGIC 191035Z AUTO 00000KT 10SM CLR 13/05 A3008 RMK AO1
KGIC 191015Z AUTO 00000KT 10SM CLR 12/05 A3008 RMK AO1
KGIC 190955Z AUTO 00000KT 10SM CLR 12/05 A3008 RMK AO1
KGIC 190935Z AUTO 23004KT 7SM CLR 12/05 A3008 RMK AO1
KGIC 190915Z AUTO 00000KT 10SM CLR 12/05 A3008 RMK AO1
KGIC 190855Z AUTO 00000KT 10SM CLR 14/05 A3008 RMK AO1